createdAt,value
2019-03-16T00:00:35.260Z,95496.77
2019-03-16T00:03:08.093Z,95507.41
2019-03-16T00:05:40.985Z,95518.78
2019-03-16T00:08:13.969Z,95505.20
2019-03-16T00:10:46.965Z,95499.85
2019-03-16T00:13:19.819Z,95496.95
2019-03-16T00:15:52.844Z,95505.30
2019-03-16T00:18:25.666Z,95500.44
2019-03-16T00:20:58.559Z,95506.61
2019-03-16T00:23:31.491Z,95512.11
2019-03-16T00:26:04.386Z,95504.61
2019-03-16T00:28:37.245Z,95499.85
2019-03-16T00:31:10.156Z,95503.00
2019-03-16T00:33:43.071Z,95506.61
2019-03-16T00:36:16.090Z,95504.16
2019-03-16T00:38:48.969Z,95498.35
2019-03-16T00:41:21.950Z,95504.52
2019-03-16T00:43:54.968Z,95497.84
2019-03-16T00:46:27.925Z,95489.58
2019-03-16T00:49:00.867Z,95483.27
2019-03-16T00:51:33.870Z,95483.18
2019-03-16T00:54:06.858Z,95474.80
2019-03-16T00:56:39.831Z,95480.44
2019-03-16T00:59:12.823Z,95479.44
2019-03-16T01:01:45.715Z,95473.77
2019-03-16T01:04:18.847Z,95475.13
2019-03-16T01:06:51.776Z,95475.43
2019-03-16T01:09:24.601Z,95472.17
2019-03-16T01:11:57.665Z,95480.30
2019-03-16T01:14:30.551Z,95486.31
2019-03-16T01:17:03.426Z,95486.84
2019-03-16T01:19:36.317Z,95480.30
2019-03-16T01:22:09.275Z,95482.91
2019-03-16T01:24:42.196Z,95476.11
2019-03-16T01:27:15.096Z,95475.32
2019-03-16T01:29:48.002Z,95475.32
2019-03-16T01:32:20.863Z,95468.89
2019-03-16T01:34:53.669Z,95459.70
2019-03-16T01:37:26.619Z,95452.83
2019-03-16T01:39:59.539Z,95455.77
2019-03-16T01:42:32.482Z,95462.31
2019-03-16T01:45:05.731Z,95466.17
2019-03-16T01:47:38.615Z,95459.59
2019-03-16T01:50:11.681Z,95462.49
2019-03-16T01:52:44.612Z,95458.70
2019-03-16T01:55:17.457Z,95453.31
2019-03-16T01:57:50.406Z,95457.98
2019-03-16T02:00:23.471Z,95457.65
2019-03-16T02:02:56.477Z,95446.05
2019-03-16T02:05:29.469Z,95455.02
2019-03-16T02:08:02.436Z,95439.77
2019-03-16T02:10:35.491Z,95432.27
2019-03-16T02:13:08.360Z,95426.63
2019-03-16T02:15:41.239Z,95422.60
2019-03-16T02:18:14.203Z,95424.83
2019-03-16T02:20:47.159Z,95426.30
2019-03-16T02:23:20.162Z,95425.29
2019-03-16T02:25:54.297Z,95419.30
2019-03-16T02:28:27.213Z,95421.20
2019-03-16T02:31:00.175Z,95411.13
2019-03-16T02:33:32.999Z,95402.90
2019-03-16T02:36:05.960Z,95405.69
2019-03-16T02:38:38.919Z,95411.67
2019-03-16T02:41:11.835Z,95421.19
2019-03-16T02:43:44.676Z,95414.00
2019-03-16T02:46:17.534Z,95412.12
2019-03-16T02:48:50.510Z,95408.62
2019-03-16T02:51:23.412Z,95414.35
2019-03-16T02:53:56.252Z,95408.96
2019-03-16T02:56:29.176Z,95405.55
2019-03-16T02:59:01.984Z,95399.59
2019-03-16T03:01:34.993Z,95406.55
2019-03-16T03:04:07.870Z,95400.31
2019-03-16T03:06:40.883Z,95393.39
2019-03-16T03:09:13.986Z,95404.87
2019-03-16T03:11:46.938Z,95404.08
2019-03-16T03:14:20.637Z,95405.52
2019-03-16T03:16:53.517Z,95412.52
2019-03-16T03:19:26.597Z,95416.47
2019-03-16T03:21:59.696Z,95413.61
2019-03-16T03:24:32.814Z,95417.47
2019-03-16T03:27:05.864Z,95418.74
2019-03-16T03:29:38.806Z,95424.06
2019-03-16T03:32:11.870Z,95423.76
2019-03-16T03:34:44.936Z,95430.34
2019-03-16T03:37:17.876Z,95429.41
2019-03-16T03:39:50.874Z,95423.72
2019-03-16T03:42:23.865Z,95426.25
2019-03-16T03:44:57.020Z,95438.08
2019-03-16T03:47:29.988Z,95437.89
2019-03-16T03:50:02.958Z,95443.09
2019-03-16T03:52:35.783Z,95436.02
2019-03-16T03:55:11.301Z,95437.96
2019-03-16T03:57:44.470Z,95438.25
2019-03-16T04:00:17.795Z,95444.47
2019-03-16T04:02:50.990Z,95435.17
2019-03-16T04:05:24.004Z,95436.62
2019-03-16T04:07:57.003Z,95436.61
2019-03-16T04:10:30.035Z,95439.44
2019-03-16T04:13:03.123Z,95433.97
2019-03-16T04:15:36.149Z,95423.59
2019-03-16T04:18:09.219Z,95421.84
2019-03-16T04:20:42.162Z,95424.17
2019-03-16T04:23:15.135Z,95423.90
2019-03-16T04:25:48.059Z,95420.06
2019-03-16T04:28:20.998Z,95428.12
2019-03-16T04:30:53.989Z,95427.13
2019-03-16T04:33:27.012Z,95430.40
2019-03-16T04:36:00.060Z,95434.11
2019-03-16T04:38:33.070Z,95429.52
2019-03-16T04:41:06.003Z,95425.89
2019-03-16T04:43:38.863Z,95429.33
2019-03-16T04:46:11.787Z,95427.36
2019-03-16T04:48:44.654Z,95424.39
2019-03-16T04:51:17.537Z,95424.66
2019-03-16T04:53:50.392Z,95420.27
2019-03-16T04:56:23.381Z,95418.89
2019-03-16T04:58:56.347Z,95410.53
2019-03-16T05:01:29.210Z,95411.61
2019-03-16T05:04:02.157Z,95414.59
2019-03-16T05:06:35.009Z,95410.57
2019-03-16T05:09:09.204Z,95401.58
2019-03-16T05:11:42.159Z,95399.98
2019-03-16T05:14:15.074Z,95390.83
2019-03-16T05:16:48.008Z,95398.37
2019-03-16T05:19:21.003Z,95396.89
2019-03-16T05:21:53.496Z,95402.38
2019-03-16T05:24:26.304Z,95401.75
2019-03-16T05:27:01.070Z,95402.20
2019-03-16T05:29:33.887Z,95406.00
2019-03-16T05:32:06.848Z,95400.38
2019-03-16T05:34:39.733Z,95410.61
2019-03-16T05:37:12.614Z,95408.78
2019-03-16T05:39:45.597Z,95406.33
2019-03-16T05:42:18.504Z,95405.84
2019-03-16T05:44:51.394Z,95405.52
2019-03-16T05:47:24.411Z,95406.19
2019-03-16T05:49:57.287Z,95410.61
2019-03-16T05:52:30.281Z,95416.97
2019-03-16T05:55:03.135Z,95410.95
2019-03-16T05:57:35.931Z,95411.13
2019-03-16T06:00:10.305Z,95409.34
2019-03-16T06:02:43.127Z,95410.61
2019-03-16T06:05:16.204Z,95411.91
2019-03-16T06:07:49.174Z,95411.72
2019-03-16T06:10:22.071Z,95410.61
2019-03-16T06:12:55.085Z,95412.61
2019-03-16T06:15:28.265Z,95409.30
2019-03-16T06:18:01.163Z,95411.16
2019-03-16T06:20:33.997Z,95400.08
2019-03-16T06:23:06.999Z,95395.80
2019-03-16T06:25:39.931Z,95399.22
2019-03-16T06:28:12.957Z,95401.83
2019-03-16T06:30:45.990Z,95397.78
2019-03-16T06:33:18.950Z,95395.63
2019-03-16T06:35:51.890Z,95396.14
2019-03-16T06:38:24.860Z,95404.91
2019-03-16T06:40:57.698Z,95407.95
2019-03-16T06:43:30.617Z,95407.28
2019-03-16T06:46:03.409Z,95397.80
2019-03-16T06:48:39.339Z,95406.80
2019-03-16T06:51:15.098Z,95401.52
2019-03-16T06:53:48.140Z,95404.27
2019-03-16T06:56:23.508Z,95409.91
2019-03-16T06:58:58.586Z,95412.58
2019-03-16T07:01:31.553Z,95414.63
2019-03-16T07:04:04.533Z,95413.95
2019-03-16T07:06:37.631Z,95406.47
2019-03-16T07:09:10.987Z,95404.98
2019-03-16T07:11:43.932Z,95411.59
2019-03-16T07:14:18.071Z,95411.30
2019-03-16T07:17:01.313Z,95409.81
2019-03-16T07:19:25.666Z,95405.90
2019-03-16T07:21:58.536Z,95409.12
2019-03-16T07:24:31.443Z,95411.22
2019-03-16T07:27:04.378Z,95409.43
2019-03-16T07:29:37.340Z,95411.11
2019-03-16T07:32:12.431Z,95419.22
2019-03-16T07:34:45.474Z,95408.73
2019-03-16T07:37:18.443Z,95404.91
2019-03-16T07:39:51.334Z,95415.33
2019-03-16T07:42:24.475Z,95419.73
2019-03-16T07:45:07.547Z,95414.33
2019-03-16T07:47:31.956Z,95419.54
2019-03-16T07:50:05.592Z,95422.09
2019-03-16T07:52:38.495Z,95423.77
2019-03-16T07:55:11.733Z,95415.53
2019-03-16T07:57:44.646Z,95420.22
2019-03-16T08:00:17.531Z,95415.82
2019-03-16T08:02:50.361Z,95406.64
2019-03-16T08:05:23.197Z,95415.25
2019-03-16T08:07:57.397Z,95412.87
2019-03-16T08:10:30.382Z,95415.86
2019-03-16T08:13:03.561Z,95413.20
2019-03-16T08:15:36.465Z,95413.55
2019-03-16T08:18:09.358Z,95411.70
2019-03-16T08:20:42.331Z,95414.17
2019-03-16T08:23:15.273Z,95401.06
2019-03-16T08:25:49.304Z,95402.63
2019-03-16T08:28:22.205Z,95407.28
2019-03-16T08:30:56.839Z,95415.04
2019-03-16T08:33:30.022Z,95400.00
2019-03-16T08:36:03.009Z,95404.72
2019-03-16T08:38:35.931Z,95397.47
2019-03-16T08:41:08.854Z,95401.47
2019-03-16T08:43:41.834Z,95388.41
2019-03-16T08:46:14.121Z,95388.86
2019-03-16T08:48:47.069Z,95394.93
2019-03-16T08:51:19.973Z,95382.23
2019-03-16T08:53:52.918Z,95383.09
2019-03-16T08:56:25.881Z,95379.89
2019-03-16T08:58:58.846Z,95371.64
2019-03-16T09:01:31.825Z,95367.55
2019-03-16T09:04:04.737Z,95363.06
2019-03-16T09:06:37.275Z,95358.99
2019-03-16T09:09:10.580Z,95350.58
2019-03-16T09:11:43.610Z,95352.48
2019-03-16T09:14:16.610Z,95348.67
2019-03-16T09:16:49.539Z,95346.20
2019-03-16T09:19:22.474Z,95348.14
2019-03-16T09:21:56.067Z,95338.11
2019-03-16T09:24:31.508Z,95339.77
2019-03-16T09:27:04.429Z,95348.22
2019-03-16T09:29:37.339Z,95342.34
2019-03-16T09:32:10.344Z,95343.73
2019-03-16T09:34:42.397Z,95341.91
2019-03-16T09:37:15.257Z,95334.47
2019-03-16T09:39:48.209Z,95336.96
2019-03-16T09:42:21.165Z,95328.14
2019-03-16T09:44:54.206Z,95338.30
2019-03-16T09:47:27.250Z,95328.85
2019-03-16T09:50:00.504Z,95338.64
2019-03-16T09:52:33.689Z,95336.74
2019-03-16T09:55:07.071Z,95335.78
2019-03-16T09:57:39.922Z,95334.50
2019-03-16T10:00:14.170Z,95327.75
2019-03-16T10:02:47.065Z,95322.64
2019-03-16T10:05:20.017Z,95322.26
2019-03-16T10:07:52.903Z,95319.17
2019-03-16T10:10:25.853Z,95324.29
2019-03-16T10:12:58.714Z,95324.71
2019-03-16T10:15:31.598Z,95326.32
2019-03-16T10:18:04.514Z,95317.59
2019-03-16T10:20:37.546Z,95313.61
2019-03-16T10:23:10.542Z,95319.30
2019-03-16T10:25:43.465Z,95313.55
2019-03-16T10:28:17.707Z,95309.95
2019-03-16T10:30:50.704Z,95306.40
2019-03-16T10:33:23.976Z,95301.09
2019-03-16T10:35:56.870Z,95301.71
2019-03-16T10:38:29.905Z,95293.38
2019-03-16T10:41:02.846Z,95282.17
2019-03-16T10:43:36.278Z,95284.53
2019-03-16T10:46:09.218Z,95282.68
2019-03-16T10:48:42.107Z,95282.67
2019-03-16T10:51:15.217Z,95273.41
2019-03-16T10:53:48.254Z,95272.31
2019-03-16T10:56:25.040Z,95272.66
2019-03-16T10:59:01.327Z,95255.25
2019-03-16T11:01:34.248Z,95263.43
2019-03-16T11:04:08.383Z,95261.63
2019-03-16T11:06:41.313Z,95249.89
2019-03-16T11:09:13.827Z,95251.23
2019-03-16T11:11:52.376Z,95244.55
2019-03-16T11:14:26.103Z,95240.50
2019-03-16T11:16:59.005Z,95242.81
2019-03-16T11:19:32.003Z,95227.73
2019-03-16T11:22:04.968Z,95225.98
2019-03-16T11:24:38.025Z,95224.98
2019-03-16T11:27:11.041Z,95226.91
2019-03-16T11:29:43.918Z,95230.76
2019-03-16T11:32:16.901Z,95231.13
2019-03-16T11:34:49.885Z,95228.95
2019-03-16T11:37:22.910Z,95228.78
2019-03-16T11:39:55.824Z,95214.52
2019-03-16T11:42:28.774Z,95216.89
2019-03-16T11:45:01.691Z,95210.91
2019-03-16T11:47:34.647Z,95194.58
2019-03-16T11:50:08.815Z,95198.48
2019-03-16T11:52:41.694Z,95201.98
2019-03-16T11:55:14.674Z,95196.22
2019-03-16T11:57:47.588Z,95200.97
2019-03-16T12:00:20.415Z,95203.89
2019-03-16T12:02:53.278Z,95188.17
2019-03-16T12:05:26.201Z,95180.55
2019-03-16T12:07:59.189Z,95180.38
2019-03-16T12:10:32.111Z,95178.72
2019-03-16T12:13:16.460Z,95173.72
2019-03-16T12:15:39.504Z,95166.78
2019-03-16T12:18:12.430Z,95159.91
2019-03-16T12:20:45.304Z,95158.06
2019-03-16T12:23:18.260Z,95149.58
2019-03-16T12:25:51.161Z,95138.55
2019-03-16T12:28:24.128Z,95137.56
2019-03-16T12:30:56.992Z,95137.92
2019-03-16T12:33:29.968Z,95125.04
2019-03-16T12:36:02.829Z,95121.33
2019-03-16T12:38:35.672Z,95112.70
2019-03-16T12:41:08.503Z,95112.72
2019-03-16T12:43:41.457Z,95096.88
2019-03-16T12:46:14.439Z,95094.29
2019-03-16T12:48:47.455Z,95083.27
2019-03-16T12:51:20.566Z,95078.57
2019-03-16T12:53:53.539Z,95081.03
2019-03-16T12:56:27.346Z,95084.05
2019-03-16T12:59:09.880Z,95078.91
2019-03-16T13:01:34.766Z,95073.05
2019-03-16T13:04:07.785Z,95065.83
2019-03-16T13:06:40.867Z,95068.27
2019-03-16T13:09:13.878Z,95050.48
2019-03-16T13:11:46.783Z,95040.21
2019-03-16T13:14:19.787Z,95048.39
2019-03-16T13:16:52.743Z,95040.17
2019-03-16T13:19:25.683Z,95036.84
2019-03-16T13:21:59.763Z,95036.55
2019-03-16T13:24:32.641Z,95037.13
2019-03-16T13:27:05.557Z,95028.77
2019-03-16T13:29:38.542Z,95017.25
2019-03-16T13:32:11.477Z,95022.80
2019-03-16T13:34:44.393Z,95021.06
2019-03-16T13:37:17.237Z,95013.77
2019-03-16T13:39:50.059Z,95008.89
2019-03-16T13:42:23.049Z,95003.51
2019-03-16T13:44:55.897Z,95003.12
2019-03-16T13:47:28.854Z,95006.52
2019-03-16T13:50:01.812Z,95004.32
2019-03-16T13:52:34.699Z,94993.69
2019-03-16T13:55:08.349Z,94993.11
2019-03-16T13:57:41.304Z,94985.77
2019-03-16T14:00:15.371Z,94975.91
2019-03-16T14:02:48.246Z,94976.31
2019-03-16T14:05:21.113Z,94978.09
2019-03-16T14:07:54.119Z,94966.64
2019-03-16T14:10:27.542Z,94966.62
2019-03-16T14:13:00.491Z,94958.30
2019-03-16T14:15:34.470Z,94966.47
2019-03-16T14:18:07.608Z,94968.20
2019-03-16T14:20:40.582Z,94967.22
2019-03-16T14:23:13.644Z,94958.94
2019-03-16T14:25:46.860Z,94955.66
2019-03-16T14:28:19.769Z,94958.33
2019-03-16T14:30:52.764Z,94952.84
2019-03-16T14:33:25.703Z,94950.09
2019-03-16T14:35:58.778Z,94940.27
2019-03-16T14:38:31.753Z,94932.71
2019-03-16T14:41:04.631Z,94932.31
2019-03-16T14:43:37.644Z,94931.48
2019-03-16T14:46:10.744Z,94931.98
2019-03-16T14:48:43.757Z,94934.01
2019-03-16T14:51:16.783Z,94920.95
2019-03-16T14:53:49.768Z,94917.48
2019-03-16T14:56:22.666Z,94909.53
2019-03-16T14:58:55.579Z,94904.94
2019-03-16T15:01:28.633Z,94911.12
2019-03-16T15:04:01.629Z,94898.44
2019-03-16T15:06:34.699Z,94904.08
2019-03-16T15:09:08.974Z,94891.11
2019-03-16T15:11:42.050Z,94895.19
2019-03-16T15:14:21.545Z,94889.16
2019-03-16T15:16:49.487Z,94890.72
2019-03-16T15:19:22.472Z,94882.73
2019-03-16T15:21:55.428Z,94882.03
2019-03-16T15:24:28.349Z,94879.08
2019-03-16T15:27:01.345Z,94870.44
2019-03-16T15:29:34.306Z,94866.73
2019-03-16T15:32:07.394Z,94867.02
2019-03-16T15:34:40.326Z,94859.57
2019-03-16T15:37:13.345Z,94856.89
2019-03-16T15:39:46.268Z,94851.86
2019-03-16T15:42:19.311Z,94853.22
2019-03-16T15:44:52.137Z,94845.27
2019-03-16T15:47:24.997Z,94853.47
2019-03-16T15:49:58.601Z,94846.50
2019-03-16T15:52:31.669Z,94847.48
2019-03-16T15:55:04.744Z,94845.82
2019-03-16T15:57:37.758Z,94839.71
2019-03-16T16:00:12.421Z,94836.20
2019-03-16T16:02:44.916Z,94839.45
2019-03-16T16:05:17.878Z,94841.63
2019-03-16T16:07:51.200Z,94839.94
2019-03-16T16:10:24.081Z,94834.88
2019-03-16T16:12:56.959Z,94833.50
2019-03-16T16:15:29.822Z,94824.83
2019-03-16T16:18:02.884Z,94820.42
2019-03-16T16:20:35.796Z,94813.23
2019-03-16T16:23:08.849Z,94808.17
2019-03-16T16:25:41.875Z,94809.94
2019-03-16T16:28:14.920Z,94803.12
2019-03-16T16:30:47.983Z,94806.62
2019-03-16T16:33:20.961Z,94803.83
2019-03-16T16:35:54.126Z,94801.14
2019-03-16T16:38:27.258Z,94801.58
2019-03-16T16:41:00.363Z,94791.38
2019-03-16T16:43:32.680Z,94794.12
2019-03-16T16:46:05.759Z,94791.84
2019-03-16T16:48:38.726Z,94794.22
2019-03-16T16:51:11.698Z,94795.28
2019-03-16T16:53:44.725Z,94792.27
2019-03-16T16:56:17.552Z,94785.31
2019-03-16T16:58:50.648Z,94788.40
2019-03-16T17:01:29.388Z,94784.45
2019-03-16T17:03:58.121Z,94785.39
2019-03-16T17:06:31.160Z,94790.38
2019-03-16T17:09:04.503Z,94792.37
2019-03-16T17:11:37.638Z,94794.41
2019-03-16T17:14:10.808Z,94797.98
2019-03-16T17:16:43.889Z,94792.95
2019-03-16T17:19:16.829Z,94791.34
2019-03-16T17:21:49.875Z,94797.58
2019-03-16T17:24:22.717Z,94790.98
2019-03-16T17:26:55.756Z,94799.53
2019-03-16T17:29:28.573Z,94788.02
2019-03-16T17:32:01.525Z,94786.99
2019-03-16T17:34:34.471Z,94790.37
2019-03-16T17:37:07.357Z,94789.29
2019-03-16T17:39:40.232Z,94791.98
2019-03-16T17:42:13.312Z,94787.52
2019-03-16T17:44:46.200Z,94790.98
2019-03-16T17:47:19.264Z,94781.72
2019-03-16T17:49:52.304Z,94774.01
2019-03-16T17:52:25.366Z,94780.77
2019-03-16T17:54:58.235Z,94777.59
2019-03-16T17:57:31.144Z,94776.66
2019-03-16T18:00:04.243Z,94773.92
2019-03-16T18:02:50.107Z,94775.55
2019-03-16T18:05:11.849Z,94775.05
2019-03-16T18:07:47.127Z,94768.00
2019-03-16T18:10:23.303Z,94775.51
2019-03-16T18:12:56.241Z,94774.59
2019-03-16T18:15:29.172Z,94772.30
2019-03-16T18:18:02.126Z,94771.29
2019-03-16T18:20:37.474Z,94781.20
2019-03-16T18:23:15.868Z,94780.91
2019-03-16T18:25:50.696Z,94774.90
2019-03-16T18:28:25.442Z,94781.55
2019-03-16T18:30:58.329Z,94775.73
2019-03-16T18:33:43.915Z,94775.38
2019-03-16T18:36:16.932Z,94772.35
2019-03-16T18:38:50.048Z,94775.70
2019-03-16T18:41:23.092Z,94769.75
2019-03-16T18:43:55.987Z,94770.47
2019-03-16T18:46:28.927Z,94776.05
2019-03-16T18:49:01.770Z,94784.34
2019-03-16T18:51:34.798Z,94777.72
2019-03-16T18:54:07.886Z,94781.19
2019-03-16T18:56:40.809Z,94778.80
2019-03-16T18:59:13.748Z,94774.42
2019-03-16T19:01:46.666Z,94767.50
2019-03-16T19:04:19.687Z,94775.31
2019-03-16T19:06:52.786Z,94775.95
2019-03-16T19:09:53.813Z,94773.84
2019-03-16T19:12:27.295Z,94774.92
2019-03-16T19:15:20.498Z,94773.92
2019-03-16T19:18:19.779Z,94772.84
2019-03-16T19:20:53.088Z,94768.48
2019-03-16T19:23:34.721Z,94765.49
2019-03-16T19:26:25.615Z,94768.98
2019-03-16T19:29:00.663Z,94758.70
2019-03-16T19:31:34.831Z,94757.67
2019-03-16T19:34:13.189Z,94761.66
2019-03-16T19:37:34.565Z,94757.87
2019-03-16T19:40:33.255Z,94745.52
2019-03-16T19:43:50.192Z,94750.89
2019-03-16T19:47:05.012Z,94743.62
2019-03-16T19:49:39.089Z,94735.11
2019-03-16T19:52:12.026Z,94739.25
2019-03-16T19:54:44.977Z,94739.89
2019-03-16T19:57:17.859Z,94739.88
2019-03-16T19:59:50.613Z,94738.28
2019-03-16T20:02:23.499Z,94735.41
2019-03-16T20:04:56.326Z,94735.11
2019-03-16T20:07:29.164Z,94735.41
2019-03-16T20:10:02.092Z,94728.00
2019-03-16T20:12:35.039Z,94729.20
2019-03-16T20:15:08.724Z,94726.45
2019-03-16T20:17:41.589Z,94723.48
2019-03-16T20:20:14.721Z,94718.10
2019-03-16T20:22:47.696Z,94729.06
2019-03-16T20:25:20.583Z,94730.15
2019-03-16T20:27:53.396Z,94720.47
2019-03-16T20:30:27.192Z,94723.48
2019-03-16T20:33:04.514Z,94726.24
2019-03-16T20:35:34.781Z,94719.90
2019-03-16T20:38:09.090Z,94718.72
2019-03-16T20:40:41.927Z,94715.94
2019-03-16T20:43:14.718Z,94723.00
2019-03-16T20:45:47.649Z,94715.58
2019-03-16T20:48:20.443Z,94710.25
2019-03-16T20:50:53.392Z,94714.59
2019-03-16T20:53:26.216Z,94707.43
2019-03-16T20:55:59.262Z,94711.05
2019-03-16T20:58:32.161Z,94712.46
2019-03-16T21:01:05.103Z,94699.09
2019-03-16T21:03:38.038Z,94704.94
2019-03-16T21:06:11.031Z,94706.81
2019-03-16T21:08:43.849Z,94691.06
2019-03-16T21:11:16.808Z,94691.91
2019-03-16T21:13:50.082Z,94686.02
2019-03-16T21:16:22.842Z,94685.70
2019-03-16T21:18:55.655Z,94690.23
2019-03-16T21:21:29.928Z,94687.16
2019-03-16T21:24:02.725Z,94686.31
2019-03-16T21:26:35.659Z,94672.72
2019-03-16T21:29:08.630Z,94678.69
2019-03-16T21:31:40.639Z,94667.47
2019-03-16T21:34:13.486Z,94662.98
2019-03-16T21:36:46.372Z,94660.09
2019-03-16T21:39:19.165Z,94651.96
2019-03-16T21:41:52.059Z,94650.03
2019-03-16T21:44:24.887Z,94639.70
2019-03-16T21:46:57.859Z,94647.38
2019-03-16T21:49:30.633Z,94639.31
2019-03-16T21:52:03.473Z,94634.91
2019-03-16T21:54:36.252Z,94630.08
2019-03-16T21:57:11.402Z,94630.44
2019-03-16T21:59:44.434Z,94629.88
2019-03-16T22:02:17.274Z,94625.89
2019-03-16T22:04:50.168Z,94621.89
2019-03-16T22:07:22.992Z,94622.37
2019-03-16T22:09:55.834Z,94612.89
2019-03-16T22:12:28.735Z,94613.64
2019-03-16T22:15:01.594Z,94613.13
2019-03-16T22:17:34.356Z,94618.66
2019-03-16T22:20:09.374Z,94618.70
2019-03-16T22:22:42.345Z,94614.96
2019-03-16T22:25:15.334Z,94607.88
2019-03-16T22:27:48.124Z,94613.03
2019-03-16T22:30:20.953Z,94616.77
2019-03-16T22:32:53.790Z,94606.63
2019-03-16T22:35:26.626Z,94613.66
2019-03-16T22:37:59.459Z,94617.06
2019-03-16T22:40:32.308Z,94609.12
2019-03-16T22:43:05.218Z,94603.07
2019-03-16T22:45:37.991Z,94600.83
2019-03-16T22:48:10.899Z,94598.30
2019-03-16T22:50:42.902Z,94590.20
2019-03-16T22:53:15.676Z,94594.77
2019-03-16T22:55:48.670Z,94586.83
2019-03-16T22:58:21.567Z,94593.69
2019-03-16T23:00:55.120Z,94587.83
2019-03-16T23:03:27.964Z,94580.69
2019-03-16T23:06:00.981Z,94579.32
2019-03-16T23:08:34.003Z,94579.89
2019-03-16T23:11:07.281Z,94579.63
2019-03-16T23:13:40.083Z,94574.27
2019-03-16T23:16:13.014Z,94575.33
2019-03-16T23:18:45.873Z,94579.11
2019-03-16T23:21:18.791Z,94569.23
2019-03-16T23:23:51.572Z,94570.50
2019-03-16T23:26:24.481Z,94573.67
2019-03-16T23:28:57.267Z,94571.61
2019-03-16T23:31:30.130Z,94569.27
2019-03-16T23:34:02.922Z,94571.11
2019-03-16T23:36:35.782Z,94564.59
2019-03-16T23:39:08.706Z,94568.78
2019-03-16T23:41:41.658Z,94553.67
2019-03-16T23:44:14.574Z,94562.37
2019-03-16T23:46:47.509Z,94560.32
2019-03-16T23:49:20.497Z,94553.66
2019-03-16T23:51:53.351Z,94547.94
2019-03-16T23:54:26.153Z,94549.71
2019-03-16T23:56:59.045Z,94537.35
2019-03-16T23:59:31.902Z,94536.96
